createdAt,value
2019-03-23T00:00:41.690Z,50.48
2019-03-23T00:03:10.230Z,50.00
2019-03-23T00:05:38.695Z,50.55
2019-03-23T00:08:07.173Z,51.53
2019-03-23T00:10:35.699Z,52.58
2019-03-23T00:13:04.160Z,48.70
2019-03-23T00:15:32.650Z,49.90
2019-03-23T00:18:01.159Z,51.35
2019-03-23T00:20:29.631Z,52.70
2019-03-23T00:22:58.089Z,53.38
2019-03-23T00:25:26.556Z,51.33
2019-03-23T00:27:55.023Z,51.37
2019-03-23T00:30:23.531Z,52.70
2019-03-23T00:32:51.983Z,49.60
2019-03-23T00:35:20.431Z,48.60
2019-03-23T00:37:48.906Z,53.15
2019-03-23T00:40:17.459Z,53.52
2019-03-23T00:42:45.987Z,52.93
2019-03-23T00:45:14.819Z,51.83
2019-03-23T00:47:43.275Z,50.45
2019-03-23T00:50:11.995Z,51.50
2019-03-23T00:52:40.444Z,53.42
2019-03-23T00:55:09.175Z,49.85
2019-03-23T00:57:37.639Z,52.53
2019-03-23T01:00:11.178Z,55.83
2019-03-23T01:02:41.755Z,53.28
2019-03-23T01:05:10.728Z,49.70
2019-03-23T01:07:39.526Z,51.70
2019-03-23T01:10:10.229Z,49.27
2019-03-23T01:12:38.722Z,52.35
2019-03-23T01:15:12.223Z,50.40
2019-03-23T01:17:40.681Z,47.90
2019-03-23T01:20:11.396Z,51.35
2019-03-23T01:22:39.861Z,50.28
2019-03-23T01:25:10.081Z,47.43
2019-03-23T01:30:09.598Z,49.42
2019-03-23T01:32:39.325Z,51.05
2019-03-23T01:35:08.223Z,48.15
2019-03-23T01:37:36.682Z,49.85
2019-03-23T01:40:06.728Z,50.05
2019-03-23T01:42:35.262Z,48.60
2019-03-23T01:45:05.351Z,44.73
2019-03-23T01:47:33.806Z,48.78
2019-03-23T01:50:02.260Z,44.77
2019-03-23T01:52:30.715Z,38.50
2019-03-23T01:54:59.187Z,36.25
2019-03-23T01:57:27.630Z,39.00
2019-03-23T01:59:56.090Z,36.58
2019-03-23T02:02:24.552Z,38.23
2019-03-23T02:04:53.075Z,33.48
2019-03-23T02:07:21.530Z,35.15
2019-03-23T02:09:49.974Z,35.15
2019-03-23T02:12:18.437Z,34.75
2019-03-23T02:14:46.876Z,35.78
2019-03-23T02:17:15.327Z,36.80
2019-03-23T02:19:43.786Z,33.35
2019-03-23T02:22:12.226Z,42.93
2019-03-23T02:24:40.688Z,38.05
2019-03-23T02:27:09.155Z,39.20
2019-03-23T02:29:37.611Z,38.98
2019-03-23T02:32:06.068Z,39.45
2019-03-23T02:34:34.521Z,41.33
2019-03-23T02:37:02.967Z,39.55
2019-03-23T02:39:32.362Z,44.00
2019-03-23T02:42:00.855Z,38.92
2019-03-23T02:44:29.367Z,43.15
2019-03-23T02:46:57.816Z,39.92
2019-03-23T02:49:26.382Z,39.73
2019-03-23T02:51:54.907Z,43.50
2019-03-23T02:54:23.357Z,39.95
2019-03-23T02:56:51.817Z,42.30
2019-03-23T02:59:20.280Z,40.50
2019-03-23T03:01:48.732Z,43.80
2019-03-23T03:04:17.181Z,38.60
2019-03-23T03:06:45.635Z,45.67
2019-03-23T03:09:14.099Z,41.35
2019-03-23T03:11:42.559Z,42.35
2019-03-23T03:14:11.013Z,43.85
2019-03-23T03:16:39.492Z,47.88
2019-03-23T03:19:07.938Z,46.10
2019-03-23T03:21:36.403Z,49.98
2019-03-23T03:24:04.846Z,47.35
2019-03-23T03:26:33.307Z,46.65
2019-03-23T03:29:01.755Z,56.30
2019-03-23T03:31:30.208Z,52.60
2019-03-23T03:33:58.656Z,47.35
2019-03-23T03:36:29.910Z,47.60
2019-03-23T03:38:57.334Z,47.35
2019-03-23T03:41:25.798Z,51.37
2019-03-23T03:43:54.318Z,46.55
2019-03-23T03:46:22.774Z,46.83
2019-03-23T03:48:51.223Z,50.88
2019-03-23T03:51:19.677Z,50.60
2019-03-23T03:53:48.128Z,50.70
2019-03-23T03:56:16.583Z,54.30
2019-03-23T03:58:45.037Z,51.05
2019-03-23T04:01:13.489Z,50.17
2019-03-23T04:03:41.951Z,48.15
2019-03-23T04:06:10.400Z,46.90
2019-03-23T04:08:38.851Z,48.63
2019-03-23T04:11:07.299Z,45.40
2019-03-23T04:13:35.758Z,47.80
2019-03-23T04:16:04.210Z,44.80
2019-03-23T04:18:32.740Z,49.67
2019-03-23T04:21:01.289Z,48.38
2019-03-23T04:23:29.747Z,50.12
2019-03-23T04:25:58.195Z,47.38
2019-03-23T04:28:26.667Z,51.37
2019-03-23T04:30:55.125Z,53.95
2019-03-23T04:33:23.596Z,55.25
2019-03-23T04:35:52.059Z,54.93
2019-03-23T04:38:22.949Z,58.28
2019-03-23T04:40:50.928Z,52.10
2019-03-23T04:43:19.392Z,59.80
2019-03-23T04:45:47.843Z,58.35
2019-03-23T04:48:16.287Z,51.98
2019-03-23T04:50:44.756Z,53.80
2019-03-23T04:53:13.210Z,54.93
2019-03-23T04:55:41.704Z,53.87
2019-03-23T04:58:10.162Z,50.48
2019-03-23T05:00:38.611Z,54.10
2019-03-23T05:03:07.096Z,52.27
2019-03-23T05:05:35.560Z,49.70
2019-03-23T05:08:04.022Z,52.48
2019-03-23T05:10:32.483Z,52.30
2019-03-23T05:13:00.939Z,45.65
2019-03-23T05:15:29.387Z,47.25
2019-03-23T05:17:57.858Z,47.95
2019-03-23T05:20:28.746Z,46.77
2019-03-23T05:22:57.336Z,49.50
2019-03-23T05:25:28.192Z,48.90
2019-03-23T05:27:57.377Z,49.25
2019-03-23T05:30:25.879Z,47.75
2019-03-23T05:32:54.325Z,50.35
2019-03-23T05:35:22.772Z,49.63
2019-03-23T05:37:51.227Z,51.80
2019-03-23T05:40:19.711Z,47.83
2019-03-23T05:42:48.161Z,39.35
2019-03-23T05:45:16.620Z,47.75
2019-03-23T05:47:45.152Z,47.85
2019-03-23T05:50:13.603Z,51.10
2019-03-23T05:52:42.119Z,47.27
2019-03-23T05:55:10.694Z,46.45
2019-03-23T05:57:39.151Z,48.65
2019-03-23T06:00:11.388Z,50.08
2019-03-23T06:02:39.917Z,48.73
2019-03-23T06:05:08.503Z,47.48
2019-03-23T06:07:37.019Z,52.13
2019-03-23T06:10:06.716Z,47.33
2019-03-23T06:12:35.167Z,46.10
2019-03-23T06:15:04.768Z,47.50
2019-03-23T06:17:33.294Z,45.98
2019-03-23T06:20:01.742Z,49.33
2019-03-23T06:22:30.224Z,48.08
2019-03-23T06:24:58.680Z,49.08
2019-03-23T06:27:27.139Z,52.38
2019-03-23T06:29:55.668Z,49.58
2019-03-23T06:32:24.122Z,49.30
2019-03-23T06:34:52.575Z,45.25
2019-03-23T06:37:21.099Z,43.90
2019-03-23T06:39:49.550Z,48.50
2019-03-23T06:42:17.997Z,49.00
2019-03-23T06:44:46.475Z,40.25
2019-03-23T06:47:15.002Z,43.08
2019-03-23T06:49:43.471Z,47.83
2019-03-23T06:52:11.927Z,47.40
2019-03-23T06:54:40.375Z,41.88
2019-03-23T06:57:08.870Z,51.23
2019-03-23T06:59:37.371Z,49.25
2019-03-23T07:02:05.900Z,44.10
2019-03-23T07:04:34.412Z,45.55
2019-03-23T07:07:02.879Z,46.18
2019-03-23T07:09:31.327Z,51.92
2019-03-23T07:11:59.799Z,45.67
2019-03-23T07:14:28.259Z,44.83
2019-03-23T07:16:56.720Z,44.98
2019-03-23T07:19:25.173Z,43.40
2019-03-23T07:21:53.699Z,44.83
2019-03-23T07:24:22.192Z,46.18
2019-03-23T07:26:50.656Z,44.00
2019-03-23T07:29:19.112Z,42.40
2019-03-23T07:31:47.591Z,41.70
2019-03-23T07:34:16.058Z,42.83
2019-03-23T07:36:44.528Z,46.05
2019-03-23T07:39:12.975Z,45.73
2019-03-23T07:41:41.432Z,44.20
2019-03-23T07:44:09.898Z,45.10
2019-03-23T07:46:38.347Z,45.63
2019-03-23T07:49:06.811Z,44.73
2019-03-23T07:51:35.299Z,43.78
2019-03-23T07:54:03.749Z,43.85
2019-03-23T07:56:32.217Z,45.75
2019-03-23T07:59:00.663Z,37.50
2019-03-23T08:01:29.127Z,42.05
2019-03-23T08:03:57.615Z,46.23
2019-03-23T08:06:26.215Z,41.08
2019-03-23T08:08:54.832Z,45.28
2019-03-23T08:11:23.290Z,44.93
2019-03-23T08:13:51.803Z,42.67
2019-03-23T08:16:20.263Z,46.48
2019-03-23T08:18:48.751Z,47.88
2019-03-23T08:21:17.201Z,43.75
2019-03-23T08:23:45.655Z,50.28
2019-03-23T08:26:14.127Z,45.90
2019-03-23T08:28:42.614Z,44.20
2019-03-23T08:31:11.741Z,46.27
2019-03-23T08:33:40.192Z,36.77
2019-03-23T08:36:08.655Z,45.57
2019-03-23T08:38:37.140Z,45.70
2019-03-23T08:41:05.654Z,49.80
2019-03-23T08:43:34.100Z,44.00
2019-03-23T08:46:02.585Z,44.98
2019-03-23T08:48:31.097Z,48.10
2019-03-23T08:50:59.549Z,43.98
2019-03-23T08:53:28.016Z,42.17
2019-03-23T08:55:56.478Z,40.10
2019-03-23T08:58:29.840Z,43.48
2019-03-23T09:00:59.266Z,43.55
2019-03-23T09:03:27.715Z,37.30
2019-03-23T09:05:57.334Z,40.35
2019-03-23T09:08:25.810Z,45.25
2019-03-23T09:10:54.346Z,42.08
2019-03-23T09:13:22.795Z,45.17
2019-03-23T09:15:51.321Z,41.28
2019-03-23T09:18:19.847Z,40.28
2019-03-23T09:20:48.317Z,43.23
2019-03-23T09:23:16.844Z,41.48
2019-03-23T09:25:45.785Z,44.25
2019-03-23T09:28:14.839Z,42.30
2019-03-23T09:30:43.344Z,42.27
2019-03-23T09:33:11.864Z,37.78
2019-03-23T09:35:40.431Z,36.88
2019-03-23T09:38:08.940Z,37.65
2019-03-23T09:40:37.401Z,34.13
2019-03-23T09:43:05.879Z,39.15
2019-03-23T09:45:34.429Z,43.08
2019-03-23T09:48:02.944Z,45.38
2019-03-23T09:50:31.431Z,44.53
2019-03-23T09:52:59.879Z,42.50
2019-03-23T09:55:28.742Z,45.67
2019-03-23T09:57:57.600Z,44.07
2019-03-23T10:00:26.050Z,38.33
2019-03-23T10:02:54.559Z,45.48
2019-03-23T10:05:23.071Z,43.05
2019-03-23T10:07:51.537Z,41.37
2019-03-23T10:10:22.009Z,42.45
2019-03-23T10:12:50.195Z,43.45
2019-03-23T10:15:18.651Z,44.80
2019-03-23T10:17:47.114Z,46.02
2019-03-23T10:20:15.562Z,44.03
2019-03-23T10:22:44.017Z,40.75
2019-03-23T10:25:12.480Z,48.33
2019-03-23T10:27:40.940Z,41.88
2019-03-23T10:30:10.835Z,44.90
2019-03-23T10:32:39.282Z,43.33
2019-03-23T10:35:08.795Z,41.77
2019-03-23T10:37:37.248Z,41.27
2019-03-23T10:40:08.511Z,44.50
2019-03-23T10:42:36.972Z,44.03
2019-03-23T10:45:09.973Z,42.43
2019-03-23T10:47:38.536Z,41.75
2019-03-23T10:50:07.538Z,44.30
2019-03-23T10:52:36.038Z,41.80
2019-03-23T10:55:07.144Z,42.58
2019-03-23T10:57:35.674Z,44.13
2019-03-23T11:00:07.438Z,44.45
2019-03-23T11:02:35.939Z,43.63
2019-03-23T11:05:06.031Z,43.38
2019-03-23T11:07:34.500Z,43.60
2019-03-23T11:10:05.405Z,42.58
2019-03-23T11:12:34.694Z,42.88
2019-03-23T11:15:03.723Z,42.27
2019-03-23T11:17:32.179Z,45.75
2019-03-23T11:20:00.643Z,43.23
2019-03-23T11:22:29.095Z,40.67
2019-03-23T11:24:57.570Z,43.25
2019-03-23T11:27:26.019Z,44.80
2019-03-23T11:29:54.496Z,39.48
2019-03-23T11:32:23.002Z,45.45
2019-03-23T11:34:51.529Z,43.50
2019-03-23T11:37:20.195Z,44.70
2019-03-23T11:39:48.842Z,45.78
2019-03-23T11:42:17.327Z,50.25
2019-03-23T11:44:45.793Z,47.78
2019-03-23T11:47:14.308Z,46.05
2019-03-23T11:49:42.848Z,47.45
2019-03-23T11:52:11.374Z,45.85
2019-03-23T11:54:39.843Z,44.93
2019-03-23T11:57:08.311Z,44.65
2019-03-23T11:59:36.769Z,48.75
2019-03-23T12:02:05.229Z,44.80
2019-03-23T12:04:33.689Z,46.70
2019-03-23T12:07:02.150Z,40.33
2019-03-23T12:09:30.707Z,45.55
2019-03-23T12:11:59.727Z,45.67
2019-03-23T12:14:28.195Z,43.98
2019-03-23T12:16:56.662Z,40.73
2019-03-23T12:19:25.175Z,39.70
2019-03-23T12:21:53.673Z,42.23
2019-03-23T12:24:22.123Z,41.40
2019-03-23T12:26:50.588Z,40.55
2019-03-23T12:29:19.043Z,40.20
2019-03-23T12:31:47.551Z,38.30
2019-03-23T12:34:16.003Z,40.98
2019-03-23T12:36:44.811Z,36.73
2019-03-23T12:39:13.255Z,38.50
2019-03-23T12:41:41.727Z,36.73
2019-03-23T12:44:10.251Z,35.43
2019-03-23T12:46:47.876Z,33.25
2019-03-23T12:49:08.879Z,32.50
2019-03-23T12:51:37.342Z,31.82
2019-03-23T12:54:05.819Z,31.35
2019-03-23T12:56:34.379Z,28.15
2019-03-23T12:59:03.072Z,30.82
2019-03-23T13:01:31.527Z,31.57
2019-03-23T13:04:00.073Z,27.37
2019-03-23T13:06:28.666Z,26.23
2019-03-23T13:08:57.141Z,26.82
2019-03-23T13:11:34.830Z,24.57
2019-03-23T13:13:55.805Z,23.70
2019-03-23T13:16:24.400Z,23.52
2019-03-23T13:18:52.867Z,22.32
2019-03-23T13:21:21.353Z,19.15
2019-03-23T13:23:49.804Z,17.87
2019-03-23T13:26:18.261Z,15.08
2019-03-23T13:28:46.757Z,14.83
2019-03-23T13:31:15.203Z,11.30
2019-03-23T13:33:43.671Z,8.43
2019-03-23T13:36:12.197Z,6.17
2019-03-23T13:38:40.657Z,5.65
2019-03-23T13:41:09.178Z,4.47
2019-03-23T13:43:37.699Z,3.67
2019-03-23T13:46:06.210Z,4.33
2019-03-23T13:48:34.654Z,4.00
2019-03-23T13:51:03.110Z,4.17
2019-03-23T13:53:31.552Z,4.75
2019-03-23T13:56:00.084Z,4.30
2019-03-23T13:58:28.583Z,3.30
2019-03-23T14:00:57.099Z,4.25
2019-03-23T14:03:25.543Z,2.60
2019-03-23T14:05:53.991Z,2.75
2019-03-23T14:08:23.822Z,2.42
2019-03-23T14:10:52.271Z,2.52
2019-03-23T14:13:20.843Z,2.77
2019-03-23T14:15:49.656Z,3.15
2019-03-23T14:18:18.160Z,2.05
2019-03-23T14:20:46.635Z,2.90
2019-03-23T14:23:15.416Z,2.50
2019-03-23T14:25:43.861Z,3.15
2019-03-23T14:28:12.399Z,2.30
2019-03-23T14:30:40.846Z,2.25
2019-03-23T14:33:09.325Z,2.30
2019-03-23T14:35:37.777Z,2.55
2019-03-23T14:38:06.306Z,2.47
2019-03-23T14:40:34.757Z,2.98
2019-03-23T14:43:03.236Z,2.65
2019-03-23T14:45:31.679Z,2.98
2019-03-23T14:48:00.263Z,2.72
2019-03-23T14:50:28.729Z,2.40
2019-03-23T14:52:57.186Z,4.17
2019-03-23T14:55:25.639Z,3.12
2019-03-23T14:57:54.124Z,3.10
2019-03-23T15:00:33.548Z,2.72
2019-03-23T15:03:02.085Z,2.37
2019-03-23T15:05:30.637Z,3.25
2019-03-23T15:07:59.377Z,3.17
2019-03-23T15:10:27.835Z,2.40
2019-03-23T15:12:56.285Z,3.40
2019-03-23T15:15:24.820Z,3.58
2019-03-23T15:17:53.280Z,3.90
2019-03-23T15:20:21.740Z,3.52
2019-03-23T15:22:50.184Z,3.17
2019-03-23T15:25:18.652Z,3.95
2019-03-23T15:27:47.111Z,3.00
2019-03-23T15:30:15.628Z,3.87
2019-03-23T15:32:44.084Z,3.83
2019-03-23T15:35:12.541Z,3.40
2019-03-23T15:37:41.002Z,4.55
2019-03-23T15:40:09.799Z,4.00
2019-03-23T15:42:38.247Z,3.83
2019-03-23T15:45:08.987Z,3.70
2019-03-23T15:47:37.513Z,3.30
2019-03-23T15:50:07.538Z,4.45
2019-03-23T15:52:35.994Z,3.67
2019-03-23T15:55:06.094Z,3.95
2019-03-23T15:57:34.727Z,3.83
2019-03-23T16:00:05.193Z,4.20
2019-03-23T16:05:01.396Z,2.80
2019-03-23T16:07:29.930Z,3.65
2019-03-23T16:09:58.427Z,4.25
2019-03-23T16:12:34.504Z,3.33
2019-03-23T16:14:57.068Z,3.62
2019-03-23T16:17:25.583Z,3.65
2019-03-23T16:19:54.041Z,4.92
2019-03-23T16:22:22.492Z,4.25
2019-03-23T16:24:50.926Z,3.58
2019-03-23T16:27:19.387Z,3.37
2019-03-23T16:29:47.843Z,4.12
2019-03-23T16:32:16.373Z,5.42
2019-03-23T16:34:44.906Z,4.30
2019-03-23T16:37:13.366Z,4.17
2019-03-23T16:39:41.807Z,3.52
2019-03-23T16:42:10.271Z,3.75
2019-03-23T16:44:38.772Z,4.85
2019-03-23T16:47:07.264Z,4.12
2019-03-23T16:49:35.734Z,4.65
2019-03-23T16:52:04.255Z,4.22
2019-03-23T16:54:32.719Z,5.28
2019-03-23T16:57:01.180Z,3.98
2019-03-23T16:59:29.752Z,4.42
2019-03-23T17:01:58.346Z,3.90
2019-03-23T17:04:26.897Z,4.33
2019-03-23T17:06:55.363Z,4.28
2019-03-23T17:09:23.851Z,4.53
2019-03-23T17:11:52.794Z,5.22
2019-03-23T17:14:21.335Z,3.72
2019-03-23T17:16:49.790Z,3.87
2019-03-23T17:19:18.256Z,3.15
2019-03-23T17:21:46.708Z,3.80
2019-03-23T17:24:15.183Z,4.58
2019-03-23T17:26:43.636Z,4.35
2019-03-23T17:29:12.088Z,5.08
2019-03-23T17:31:40.559Z,4.90
2019-03-23T17:34:09.008Z,5.33
2019-03-23T17:36:37.452Z,4.35
2019-03-23T17:39:06.375Z,4.00
2019-03-23T17:41:34.847Z,4.55
2019-03-23T17:44:03.395Z,4.58
2019-03-23T17:46:31.866Z,4.33
2019-03-23T17:49:00.322Z,3.92
2019-03-23T17:51:28.769Z,4.12
2019-03-23T17:53:58.782Z,4.80
2019-03-23T17:56:27.578Z,3.77
2019-03-23T17:58:56.031Z,4.67
2019-03-23T18:01:24.554Z,4.92
2019-03-23T18:03:53.048Z,4.62
2019-03-23T18:06:21.491Z,4.53
2019-03-23T18:08:49.950Z,4.67
2019-03-23T18:11:18.397Z,4.78
2019-03-23T18:13:46.852Z,3.87
2019-03-23T18:16:15.315Z,3.90
2019-03-23T18:18:43.760Z,4.47
2019-03-23T18:21:12.221Z,4.77
2019-03-23T18:23:40.655Z,4.95
2019-03-23T18:26:09.248Z,5.07
2019-03-23T18:28:37.787Z,5.05
2019-03-23T18:31:06.246Z,4.53
2019-03-23T18:33:34.690Z,4.80
2019-03-23T18:36:03.154Z,4.65
2019-03-23T18:38:31.655Z,4.95
2019-03-23T18:41:00.125Z,4.25
2019-03-23T18:43:28.644Z,4.42
2019-03-23T18:45:57.096Z,5.42
2019-03-23T18:48:25.550Z,4.67
2019-03-23T18:50:54.007Z,5.95
2019-03-23T18:53:24.052Z,4.37
2019-03-23T18:55:52.711Z,4.37
2019-03-23T18:58:21.483Z,4.35
2019-03-23T19:00:50.032Z,5.05
2019-03-23T19:03:18.983Z,5.55
2019-03-23T19:05:47.429Z,4.72
2019-03-23T19:08:15.963Z,5.20
2019-03-23T19:10:44.407Z,4.53
2019-03-23T19:13:13.022Z,4.67
2019-03-23T19:15:41.477Z,4.10
2019-03-23T19:18:10.075Z,4.78
2019-03-23T19:20:38.540Z,5.50
2019-03-23T19:23:07.002Z,5.95
2019-03-23T19:25:35.474Z,5.08
2019-03-23T19:28:04.127Z,5.62
2019-03-23T19:30:32.620Z,4.78
2019-03-23T19:33:01.098Z,5.17
2019-03-23T19:35:29.534Z,5.90
2019-03-23T19:37:57.996Z,5.78
2019-03-23T19:40:26.521Z,4.97
2019-03-23T19:42:55.089Z,6.55
2019-03-23T19:45:23.535Z,6.55
2019-03-23T19:47:52.698Z,5.60
2019-03-23T19:50:21.182Z,5.22
2019-03-23T19:52:49.680Z,5.53
2019-03-23T19:55:18.152Z,6.25
2019-03-23T19:57:46.607Z,6.20
2019-03-23T20:00:15.728Z,5.75
2019-03-23T20:02:44.187Z,6.57
2019-03-23T20:05:12.695Z,6.65
2019-03-23T20:07:41.175Z,5.12
2019-03-23T20:10:10.380Z,5.97
2019-03-23T20:12:38.848Z,5.62
2019-03-23T20:15:08.942Z,7.00
2019-03-23T20:17:37.521Z,6.33
2019-03-23T20:20:10.014Z,5.92
2019-03-23T20:22:38.564Z,5.85
2019-03-23T20:25:07.520Z,6.58
2019-03-23T20:27:38.551Z,4.97
2019-03-23T20:30:10.551Z,5.83
2019-03-23T20:32:39.082Z,4.85
2019-03-23T20:35:10.278Z,5.33
2019-03-23T20:37:38.810Z,6.30
2019-03-23T20:40:08.311Z,5.08
2019-03-23T20:42:36.755Z,5.63
2019-03-23T20:45:09.678Z,5.78
2019-03-23T20:47:40.338Z,4.40
2019-03-23T20:50:10.194Z,5.97
2019-03-23T20:52:39.103Z,6.58
2019-03-23T20:55:13.181Z,7.28
2019-03-23T20:57:41.627Z,6.37
2019-03-23T21:00:10.171Z,7.22
2019-03-23T21:02:38.650Z,6.47
2019-03-23T21:05:07.169Z,6.42
2019-03-23T21:07:35.855Z,6.03
2019-03-23T21:10:05.892Z,6.62
2019-03-23T21:12:34.332Z,6.10
2019-03-23T21:15:02.775Z,5.62
2019-03-23T21:17:31.231Z,6.33
2019-03-23T21:19:59.756Z,7.03
2019-03-23T21:22:28.200Z,6.62
2019-03-23T21:24:56.653Z,5.53
2019-03-23T21:27:25.097Z,5.53
2019-03-23T21:29:53.843Z,5.67
2019-03-23T21:32:22.307Z,5.85
2019-03-23T21:34:50.828Z,5.47
2019-03-23T21:37:19.344Z,5.50
2019-03-23T21:39:47.787Z,6.25
2019-03-23T21:42:16.266Z,7.22
2019-03-23T21:44:44.709Z,5.83
2019-03-23T21:47:13.154Z,5.80
2019-03-23T21:49:41.596Z,6.55
2019-03-23T21:52:10.048Z,4.72
2019-03-23T21:54:38.504Z,5.05
2019-03-23T21:57:06.948Z,5.40
2019-03-23T21:59:35.390Z,5.12
2019-03-23T22:02:03.850Z,6.17
2019-03-23T22:04:32.298Z,4.92
2019-03-23T22:07:00.743Z,5.62
2019-03-23T22:09:29.189Z,5.37
2019-03-23T22:11:57.720Z,5.72
2019-03-23T22:14:26.173Z,4.78
2019-03-23T22:16:54.695Z,6.00
2019-03-23T22:19:23.178Z,5.72
2019-03-23T22:21:51.622Z,5.50
2019-03-23T22:24:20.065Z,6.35
2019-03-23T22:26:48.554Z,5.97
2019-03-23T22:29:16.995Z,5.37
2019-03-23T22:31:45.455Z,5.40
2019-03-23T22:34:13.915Z,6.28
2019-03-23T22:36:42.428Z,5.53
2019-03-23T22:39:12.031Z,5.45
2019-03-23T22:41:40.487Z,5.13
2019-03-23T22:44:09.273Z,5.60
2019-03-23T22:46:37.796Z,5.67
2019-03-23T22:49:06.315Z,5.65
2019-03-23T22:51:34.758Z,7.40
2019-03-23T22:54:03.223Z,5.50
2019-03-23T22:56:31.796Z,6.62
2019-03-23T22:59:00.291Z,6.40
2019-03-23T23:01:28.740Z,7.67
2019-03-23T23:03:57.189Z,7.53
2019-03-23T23:06:25.754Z,6.92
2019-03-23T23:08:54.263Z,5.42
2019-03-23T23:11:22.735Z,6.53
2019-03-23T23:13:51.186Z,5.53
2019-03-23T23:16:19.635Z,5.55
2019-03-23T23:18:48.084Z,6.85
2019-03-23T23:21:16.531Z,6.80
2019-03-23T23:23:44.983Z,5.60
2019-03-23T23:26:13.437Z,5.77
2019-03-23T23:28:41.972Z,4.67
2019-03-23T23:31:10.433Z,6.40
2019-03-23T23:33:38.938Z,6.20
2019-03-23T23:36:07.397Z,5.87
2019-03-23T23:38:37.564Z,5.67
2019-03-23T23:41:06.067Z,7.17
2019-03-23T23:43:34.524Z,5.75
2019-03-23T23:46:02.952Z,5.28
2019-03-23T23:48:31.751Z,4.95
2019-03-23T23:51:00.210Z,4.92
2019-03-23T23:53:28.715Z,6.60
2019-03-23T23:55:57.289Z,6.55
2019-03-23T23:58:25.887Z,6.17
